createdAt,value
2019-05-21T00:00:31.821Z,10.40
2019-05-21T00:03:00.790Z,10.40
2019-05-21T00:05:32.557Z,10.40
2019-05-21T00:08:01.534Z,10.30
2019-05-21T00:10:30.466Z,10.30
2019-05-21T00:12:59.363Z,10.40
2019-05-21T00:15:28.255Z,10.40
2019-05-21T00:18:00.222Z,10.40
2019-05-21T00:20:29.129Z,10.40
2019-05-21T00:22:58.440Z,10.40
2019-05-21T00:25:33.709Z,10.40
2019-05-21T00:28:36.097Z,10.30
2019-05-21T00:31:41.065Z,10.30
2019-05-21T00:34:46.086Z,10.30
2019-05-21T00:37:54.049Z,10.30
2019-05-21T00:40:59.527Z,10.30
2019-05-21T00:43:39.602Z,10.30
2019-05-21T00:46:08.482Z,10.30
2019-05-21T00:48:37.501Z,10.30
2019-05-21T00:51:06.503Z,10.30
2019-05-21T00:53:35.426Z,10.30
2019-05-21T00:56:04.319Z,10.30
2019-05-21T00:58:33.238Z,10.20
2019-05-21T01:01:02.135Z,10.30
2019-05-21T01:03:35.159Z,10.20
2019-05-21T01:06:04.095Z,10.30
2019-05-21T01:08:32.989Z,10.20
2019-05-21T01:11:01.865Z,10.20
2019-05-21T01:13:30.844Z,10.20
2019-05-21T01:16:01.219Z,10.20
2019-05-21T01:18:30.155Z,10.20
2019-05-21T01:20:59.149Z,10.20
2019-05-21T01:23:28.022Z,10.20
2019-05-21T01:25:56.947Z,10.20
2019-05-21T01:28:25.863Z,10.20
2019-05-21T01:30:54.753Z,10.20
2019-05-21T01:33:23.673Z,10.20
2019-05-21T01:35:52.718Z,10.20
2019-05-21T01:38:23.822Z,10.20
2019-05-21T01:40:52.710Z,10.20
2019-05-21T01:43:21.657Z,10.10
2019-05-21T01:45:50.608Z,10.10
2019-05-21T01:48:19.491Z,10.10
2019-05-21T01:50:48.434Z,10.10
2019-05-21T01:53:17.365Z,10.20
2019-05-21T01:55:46.264Z,10.20
2019-05-21T01:58:15.204Z,10.20
2019-05-21T02:00:44.230Z,10.20
2019-05-21T02:03:13.120Z,10.20
2019-05-21T02:05:42.055Z,10.20
2019-05-21T02:08:10.985Z,10.30
2019-05-21T02:10:39.967Z,10.30
2019-05-21T02:13:08.977Z,10.20
2019-05-21T02:15:37.867Z,10.20
2019-05-21T02:18:06.849Z,10.20
2019-05-21T02:20:35.888Z,10.20
2019-05-21T02:23:04.779Z,10.20
2019-05-21T02:25:33.766Z,10.20
2019-05-21T02:28:02.701Z,10.20
2019-05-21T02:30:31.670Z,10.20
2019-05-21T02:33:00.612Z,10.20
2019-05-21T02:35:29.617Z,10.20
2019-05-21T02:38:00.007Z,10.20
2019-05-21T02:40:28.897Z,10.30
2019-05-21T02:42:58.433Z,10.30
2019-05-21T02:45:27.360Z,10.30
2019-05-21T02:47:56.251Z,10.30
2019-05-21T02:50:25.200Z,10.30
2019-05-21T02:52:56.854Z,10.30
2019-05-21T02:55:25.871Z,10.30
2019-05-21T02:57:54.785Z,10.30
2019-05-21T03:00:43.179Z,10.30
2019-05-21T03:03:13.811Z,10.30
2019-05-21T03:05:42.723Z,10.30
2019-05-21T03:08:11.629Z,10.30
2019-05-21T03:10:40.547Z,10.30
2019-05-21T03:13:09.539Z,10.30
2019-05-21T03:15:38.438Z,10.30
2019-05-21T03:18:07.392Z,10.20
2019-05-21T03:20:36.278Z,10.30
2019-05-21T03:23:05.283Z,10.20
2019-05-21T03:25:34.230Z,10.30
2019-05-21T03:28:03.116Z,10.30
2019-05-21T03:30:31.989Z,10.30
2019-05-21T03:33:00.947Z,10.30
2019-05-21T03:35:29.928Z,10.30
2019-05-21T03:37:58.840Z,10.30
2019-05-21T03:40:27.769Z,10.20
2019-05-21T03:42:56.663Z,10.20
2019-05-21T03:45:25.647Z,10.20
2019-05-21T03:47:54.712Z,10.20
2019-05-21T03:50:23.615Z,10.20
2019-05-21T03:52:52.518Z,10.20
2019-05-21T03:55:21.425Z,10.20
2019-05-21T03:57:50.306Z,10.10
2019-05-21T04:00:19.917Z,10.10
2019-05-21T04:02:48.855Z,10.00
2019-05-21T04:05:25.826Z,10.00
2019-05-21T04:07:54.822Z,10.00
2019-05-21T04:10:23.899Z,10.00
2019-05-21T04:13:08.784Z,10.00
2019-05-21T04:15:41.989Z,10.00
2019-05-21T04:18:15.461Z,10.00
2019-05-21T04:20:44.479Z,9.90
2019-05-21T04:23:13.467Z,9.90
2019-05-21T04:25:42.399Z,9.90
2019-05-21T04:28:11.318Z,9.90
2019-05-21T04:30:40.212Z,9.90
2019-05-21T04:33:09.132Z,9.80
2019-05-21T04:35:38.026Z,9.80
2019-05-21T04:38:06.995Z,9.80
2019-05-21T04:40:35.981Z,9.70
2019-05-21T04:43:04.952Z,9.70
2019-05-21T04:45:33.858Z,9.60
2019-05-21T04:48:02.848Z,9.60
2019-05-21T04:50:32.773Z,9.50
2019-05-21T04:53:01.658Z,9.40
2019-05-21T04:55:30.591Z,9.40
2019-05-21T04:57:59.480Z,9.40
2019-05-21T05:00:28.356Z,9.30
2019-05-21T05:02:57.362Z,9.40
2019-05-21T05:05:26.226Z,9.40
2019-05-21T05:07:55.138Z,9.40
2019-05-21T05:10:24.066Z,9.40
2019-05-21T05:12:52.953Z,9.40
2019-05-21T05:15:21.848Z,9.40
2019-05-21T05:17:50.784Z,9.50
2019-05-21T05:20:19.786Z,9.50
2019-05-21T05:22:48.676Z,9.50
2019-05-21T05:25:17.837Z,9.50
2019-05-21T05:27:54.081Z,9.50
2019-05-21T05:30:23.210Z,9.60
2019-05-21T05:32:52.106Z,9.60
2019-05-21T05:35:20.977Z,9.70
2019-05-21T05:37:49.959Z,9.70
2019-05-21T05:40:19.363Z,9.80
2019-05-21T05:42:48.274Z,9.80
2019-05-21T05:45:17.988Z,9.80
2019-05-21T05:47:46.875Z,9.80
2019-05-21T05:50:24.697Z,9.80
2019-05-21T05:52:53.644Z,9.80
2019-05-21T05:55:22.524Z,9.80
2019-05-21T05:57:51.469Z,9.80
2019-05-21T06:00:23.326Z,9.80
2019-05-21T06:02:52.380Z,9.80
2019-05-21T06:05:29.837Z,9.80
2019-05-21T06:08:00.376Z,9.80
2019-05-21T06:10:29.264Z,9.80
2019-05-21T06:12:58.214Z,9.80
2019-05-21T06:15:32.566Z,9.90
2019-05-21T06:18:01.552Z,9.90
2019-05-21T06:20:30.578Z,9.90
2019-05-21T06:22:59.559Z,9.90
2019-05-21T06:25:28.709Z,10.00
2019-05-21T06:27:57.595Z,10.00
2019-05-21T06:30:26.501Z,10.00
2019-05-21T06:32:55.554Z,10.00
2019-05-21T06:35:28.349Z,10.00
2019-05-21T06:37:57.267Z,10.10
2019-05-21T06:40:26.193Z,10.10
2019-05-21T06:42:55.112Z,10.10
2019-05-21T06:45:24.130Z,10.20
2019-05-21T06:47:53.065Z,10.10
2019-05-21T06:50:21.964Z,10.10
2019-05-21T06:52:50.959Z,10.20
2019-05-21T06:55:23.059Z,10.10
2019-05-21T06:57:51.940Z,10.20
2019-05-21T07:00:21.325Z,10.20
2019-05-21T07:02:50.251Z,10.20
2019-05-21T07:05:19.173Z,10.20
2019-05-21T07:07:48.060Z,10.20
2019-05-21T07:10:17.989Z,10.20
2019-05-21T07:12:46.923Z,10.20
2019-05-21T07:15:27.211Z,10.20
2019-05-21T07:17:56.131Z,10.20
2019-05-21T07:20:25.431Z,10.20
2019-05-21T07:22:54.458Z,10.20
2019-05-21T07:25:32.249Z,10.30
2019-05-21T07:28:01.243Z,10.20
2019-05-21T07:30:30.203Z,10.20
2019-05-21T07:32:59.157Z,10.20
2019-05-21T07:35:28.185Z,10.30
2019-05-21T07:37:57.154Z,10.30
2019-05-21T07:40:26.138Z,10.20
2019-05-21T07:42:55.086Z,10.30
2019-05-21T07:45:23.996Z,10.30
2019-05-21T07:47:52.873Z,10.30
2019-05-21T07:50:21.800Z,10.30
2019-05-21T07:52:50.804Z,10.40
2019-05-21T07:55:19.714Z,10.40
2019-05-21T07:57:48.669Z,10.40
2019-05-21T08:00:18.075Z,10.50
2019-05-21T08:02:46.959Z,10.50
2019-05-21T08:05:16.117Z,10.50
2019-05-21T08:07:44.999Z,10.50
2019-05-21T08:10:15.006Z,10.60
2019-05-21T08:12:44.145Z,10.70
2019-05-21T08:15:13.470Z,10.70
2019-05-21T08:17:42.356Z,10.80
2019-05-21T08:20:11.808Z,10.80
2019-05-21T08:22:40.691Z,10.80
2019-05-21T08:25:14.229Z,10.70
2019-05-21T08:27:40.630Z,10.80
2019-05-21T08:30:09.694Z,10.80
2019-05-21T08:32:38.575Z,10.90
2019-05-21T08:35:07.735Z,11.00
2019-05-21T08:37:36.655Z,11.10
2019-05-21T08:40:09.386Z,11.20
2019-05-21T08:42:39.254Z,11.20
2019-05-21T08:45:09.352Z,11.20
2019-05-21T08:47:38.290Z,11.30
2019-05-21T08:50:11.939Z,11.30
2019-05-21T08:52:40.970Z,11.40
2019-05-21T08:55:30.690Z,11.50
2019-05-21T08:58:06.856Z,11.60
2019-05-21T09:00:30.334Z,11.70
2019-05-21T09:03:00.552Z,11.70
2019-05-21T09:05:29.433Z,11.70
2019-05-21T09:07:58.461Z,11.70
2019-05-21T09:10:27.402Z,11.70
2019-05-21T09:12:56.287Z,11.70
2019-05-21T09:15:25.380Z,11.80
2019-05-21T09:17:54.321Z,11.80
2019-05-21T09:20:24.119Z,11.90
2019-05-21T09:22:53.003Z,12.00
2019-05-21T09:25:21.941Z,12.20
2019-05-21T09:27:51.014Z,12.30
2019-05-21T09:30:21.034Z,12.20
2019-05-21T09:32:49.979Z,12.20
2019-05-21T09:35:18.870Z,12.20
2019-05-21T09:37:47.788Z,12.10
2019-05-21T09:40:18.493Z,12.20
2019-05-21T09:42:47.556Z,12.20
2019-05-21T09:45:16.728Z,12.30
2019-05-21T09:47:45.671Z,12.40
2019-05-21T09:50:15.027Z,12.40
2019-05-21T09:52:43.929Z,12.50
2019-05-21T09:55:13.171Z,12.50
2019-05-21T09:57:49.532Z,12.40
2019-05-21T10:00:21.061Z,12.40
2019-05-21T10:02:49.999Z,12.50
2019-05-21T10:05:18.901Z,12.40
2019-05-21T10:07:47.823Z,12.40
2019-05-21T10:10:16.739Z,12.50
2019-05-21T10:12:45.663Z,12.50
2019-05-21T10:15:14.879Z,12.50
2019-05-21T10:17:43.783Z,12.50
2019-05-21T10:20:12.884Z,12.50
2019-05-21T10:22:41.824Z,12.50
2019-05-21T10:25:11.035Z,12.70
2019-05-21T10:27:39.928Z,12.70
2019-05-21T10:30:10.084Z,12.70
2019-05-21T10:32:38.980Z,12.70
2019-05-21T10:35:08.373Z,12.60
2019-05-21T10:37:37.339Z,12.60
2019-05-21T10:40:07.746Z,12.60
2019-05-21T10:42:36.649Z,12.60
2019-05-21T10:45:07.402Z,12.50
2019-05-21T10:47:36.310Z,12.40
2019-05-21T10:50:09.784Z,12.50
2019-05-21T10:52:38.702Z,12.60
2019-05-21T10:55:09.494Z,12.80
2019-05-21T10:57:38.441Z,12.90
2019-05-21T11:00:10.330Z,12.90
2019-05-21T11:02:40.889Z,13.00
2019-05-21T11:05:15.488Z,13.00
2019-05-21T11:07:44.405Z,13.20
2019-05-21T11:10:14.262Z,13.20
2019-05-21T11:12:43.363Z,13.30
2019-05-21T11:15:12.387Z,13.40
2019-05-21T11:17:58.894Z,13.10
2019-05-21T11:20:13.417Z,13.00
2019-05-21T11:22:42.329Z,12.90
2019-05-21T11:25:11.211Z,12.90
2019-05-21T11:27:40.142Z,13.10
2019-05-21T11:30:09.649Z,13.10
2019-05-21T11:32:38.639Z,13.20
2019-05-21T11:35:08.824Z,13.20
2019-05-21T11:37:37.797Z,13.20
2019-05-21T11:40:08.618Z,13.20
2019-05-21T11:42:37.843Z,13.20
2019-05-21T11:45:10.367Z,13.30
2019-05-21T11:47:39.303Z,13.40
2019-05-21T11:50:09.416Z,13.30
2019-05-21T11:52:38.298Z,13.30
2019-05-21T11:55:08.040Z,13.20
2019-05-21T11:57:37.027Z,13.20
2019-05-21T12:00:08.895Z,13.20
2019-05-21T12:02:37.906Z,13.30
2019-05-21T12:05:07.847Z,13.40
2019-05-21T12:07:36.731Z,13.40
2019-05-21T12:10:07.551Z,13.50
2019-05-21T12:12:36.512Z,13.60
2019-05-21T12:15:09.621Z,13.90
2019-05-21T12:17:38.522Z,14.80
2019-05-21T12:20:09.158Z,16.10
2019-05-21T12:22:38.034Z,16.70
2019-05-21T12:25:07.479Z,16.30
2019-05-21T12:27:36.399Z,15.70
2019-05-21T12:30:09.466Z,15.60
2019-05-21T12:32:38.647Z,15.20
2019-05-21T12:35:07.695Z,15.00
2019-05-21T12:37:36.736Z,14.90
2019-05-21T12:40:06.997Z,15.10
2019-05-21T12:42:36.056Z,15.60
2019-05-21T12:45:06.842Z,16.60
2019-05-21T12:47:35.698Z,16.90
2019-05-21T12:50:06.265Z,16.90
2019-05-21T12:52:35.160Z,16.50
2019-05-21T12:55:06.533Z,16.60
2019-05-21T12:57:35.549Z,16.50
2019-05-21T13:00:07.826Z,16.40
2019-05-21T13:02:36.882Z,16.00
2019-05-21T13:05:11.124Z,15.80
2019-05-21T13:07:38.286Z,15.50
2019-05-21T13:10:08.184Z,15.50
2019-05-21T13:12:37.192Z,15.20
2019-05-21T13:15:07.938Z,15.10
2019-05-21T13:17:37.126Z,15.50
2019-05-21T13:20:09.581Z,16.00
2019-05-21T13:22:38.640Z,16.40
2019-05-21T13:25:08.135Z,16.30
2019-05-21T13:27:37.200Z,15.90
2019-05-21T13:30:07.860Z,15.30
2019-05-21T13:32:43.148Z,15.20
2019-05-21T13:35:11.351Z,15.00
2019-05-21T13:37:40.446Z,14.90
2019-05-21T13:40:10.459Z,14.90
2019-05-21T13:42:39.408Z,14.80
2019-05-21T13:45:09.139Z,14.90
2019-05-21T13:47:38.045Z,14.80
2019-05-21T13:50:08.062Z,14.80
2019-05-21T13:52:37.100Z,14.80
2019-05-21T13:55:10.289Z,14.80
2019-05-21T13:57:39.426Z,14.60
2019-05-21T14:00:11.320Z,14.60
2019-05-21T14:02:40.240Z,14.70
2019-05-21T14:05:09.428Z,14.90
2019-05-21T14:07:38.359Z,15.00
2019-05-21T14:10:15.921Z,15.00
2019-05-21T14:12:38.499Z,15.00
2019-05-21T14:15:07.692Z,15.10
2019-05-21T14:17:36.682Z,15.20
2019-05-21T14:20:09.335Z,15.10
2019-05-21T14:22:38.211Z,14.80
2019-05-21T14:25:07.624Z,14.70
2019-05-21T14:27:44.526Z,14.60
2019-05-21T14:30:08.804Z,14.60
2019-05-21T14:32:37.872Z,14.50
2019-05-21T14:35:07.048Z,14.30
2019-05-21T14:37:36.030Z,14.50
2019-05-21T14:40:06.803Z,14.50
2019-05-21T14:42:35.719Z,14.60
2019-05-21T14:45:08.796Z,14.70
2019-05-21T14:47:38.188Z,14.60
2019-05-21T14:50:09.452Z,14.50
2019-05-21T14:52:38.367Z,14.30
2019-05-21T14:55:07.886Z,14.30
2019-05-21T14:57:36.885Z,14.00
2019-05-21T15:00:11.312Z,13.70
2019-05-21T15:02:40.498Z,13.50
2019-05-21T15:05:09.764Z,13.40
2019-05-21T15:07:38.670Z,13.40
2019-05-21T15:10:07.559Z,13.40
2019-05-21T15:12:36.507Z,13.40
2019-05-21T15:15:08.690Z,13.40
2019-05-21T15:17:37.537Z,13.50
2019-05-21T15:20:09.665Z,13.60
2019-05-21T15:22:38.730Z,13.70
2019-05-21T15:25:08.119Z,13.80
2019-05-21T15:27:37.037Z,14.00
2019-05-21T15:30:07.178Z,14.40
2019-05-21T15:32:36.085Z,15.20
2019-05-21T15:35:06.040Z,15.70
2019-05-21T15:37:35.037Z,15.90
2019-05-21T15:40:05.735Z,16.90
2019-05-21T15:42:34.830Z,16.90
2019-05-21T15:45:04.128Z,16.60
2019-05-21T15:47:33.067Z,16.30
2019-05-21T15:50:02.028Z,16.20
2019-05-21T15:52:30.996Z,16.10
2019-05-21T15:54:59.907Z,15.80
2019-05-21T15:57:28.921Z,15.30
2019-05-21T15:59:57.802Z,15.00
2019-05-21T16:02:26.705Z,14.40
2019-05-21T16:04:55.636Z,14.00
2019-05-21T16:07:24.532Z,13.70
2019-05-21T16:09:53.437Z,13.50
2019-05-21T16:12:22.357Z,13.30
2019-05-21T16:14:51.309Z,13.20
2019-05-21T16:17:20.237Z,13.20
2019-05-21T16:20:09.060Z,13.10
2019-05-21T16:22:37.980Z,13.00
2019-05-21T16:25:26.201Z,13.00
2019-05-21T16:27:55.087Z,12.90
2019-05-21T16:30:24.168Z,12.80
2019-05-21T16:32:53.284Z,12.80
2019-05-21T16:35:22.172Z,13.80
2019-05-21T16:37:51.133Z,15.30
2019-05-21T16:40:20.374Z,16.80
2019-05-21T16:42:49.459Z,17.50
2019-05-21T16:45:18.937Z,18.00
2019-05-21T16:47:48.062Z,17.70
2019-05-21T16:50:17.960Z,18.00
2019-05-21T16:52:47.073Z,18.60
2019-05-21T16:55:16.402Z,18.90
2019-05-21T16:57:50.022Z,19.20
2019-05-21T17:00:28.765Z,19.40
2019-05-21T17:02:57.678Z,19.30
2019-05-21T17:05:26.794Z,19.30
2019-05-21T17:07:55.735Z,19.60
2019-05-21T17:10:26.220Z,19.40
2019-05-21T17:12:58.153Z,19.30
2019-05-21T17:15:27.258Z,19.70
2019-05-21T17:17:56.158Z,19.10
2019-05-21T17:20:25.084Z,18.70
2019-05-21T17:22:54.032Z,18.70
2019-05-21T17:25:22.942Z,18.70
2019-05-21T17:27:51.839Z,18.60
2019-05-21T17:30:21.263Z,18.90
2019-05-21T17:32:50.169Z,18.00
2019-05-21T17:35:19.250Z,16.90
2019-05-21T17:37:48.181Z,16.40
2019-05-21T17:40:17.506Z,15.90
2019-05-21T17:42:46.729Z,15.60
2019-05-21T17:45:15.938Z,14.90
2019-05-21T17:47:45.123Z,14.70
2019-05-21T17:50:14.336Z,14.40
2019-05-21T17:52:43.322Z,14.00
2019-05-21T17:55:12.915Z,13.80
2019-05-21T17:57:42.630Z,13.70
2019-05-21T18:00:12.649Z,13.70
2019-05-21T18:02:41.745Z,13.50
2019-05-21T18:05:11.549Z,13.50
2019-05-21T18:07:41.300Z,13.60
2019-05-21T18:10:11.159Z,13.50
2019-05-21T18:12:40.385Z,13.40
2019-05-21T18:15:11.705Z,13.20
2019-05-21T18:17:43.219Z,12.90
2019-05-21T18:20:15.148Z,12.60
2019-05-21T18:22:45.817Z,12.40
2019-05-21T18:25:14.986Z,12.30
2019-05-21T18:27:43.981Z,12.30
2019-05-21T18:30:15.253Z,12.20
2019-05-21T18:32:44.748Z,12.10
2019-05-21T18:35:14.051Z,12.00
2019-05-21T18:37:43.368Z,12.00
2019-05-21T18:40:12.564Z,12.00
2019-05-21T18:42:41.566Z,11.90
2019-05-21T18:45:11.364Z,11.90
2019-05-21T18:47:40.250Z,11.90
2019-05-21T18:50:09.640Z,11.80
2019-05-21T18:52:38.519Z,11.80
2019-05-21T18:55:07.915Z,11.90
2019-05-21T18:57:37.088Z,11.90
2019-05-21T19:00:07.394Z,11.80
2019-05-21T19:02:36.606Z,11.80
2019-05-21T19:05:07.437Z,11.90
2019-05-21T19:07:36.734Z,11.90
2019-05-21T19:10:10.471Z,11.80
2019-05-21T19:12:40.226Z,11.80
2019-05-21T19:15:10.064Z,11.80
2019-05-21T19:17:39.286Z,11.80
2019-05-21T19:20:09.037Z,11.80
2019-05-21T19:22:38.143Z,11.70
2019-05-21T19:25:08.142Z,11.70
2019-05-21T19:27:37.183Z,11.70
2019-05-21T19:30:07.824Z,11.70
2019-05-21T19:32:36.926Z,11.70
2019-05-21T19:35:09.469Z,11.70
2019-05-21T19:37:38.670Z,11.70
2019-05-21T19:40:08.831Z,11.60
2019-05-21T19:42:52.268Z,11.60
2019-05-21T19:45:10.650Z,11.60
2019-05-21T19:47:39.716Z,11.60
2019-05-21T19:50:12.088Z,11.60
2019-05-21T19:52:41.038Z,11.60
2019-05-21T19:55:10.045Z,11.60
2019-05-21T19:57:40.562Z,11.60
2019-05-21T20:00:10.851Z,11.60
2019-05-21T20:02:40.108Z,11.60
2019-05-21T20:05:10.333Z,11.60
2019-05-21T20:07:40.062Z,11.50
2019-05-21T20:10:09.391Z,11.50
2019-05-21T20:12:38.869Z,11.50
2019-05-21T20:15:08.986Z,11.50
2019-05-21T20:17:39.132Z,11.50
2019-05-21T20:20:10.564Z,11.50
2019-05-21T20:22:42.739Z,11.40
2019-05-21T20:25:13.216Z,11.40
2019-05-21T20:27:49.360Z,11.30
2019-05-21T20:30:27.713Z,11.30
2019-05-21T20:33:02.808Z,11.30
2019-05-21T20:35:39.519Z,11.20
2019-05-21T20:38:14.613Z,11.20
2019-05-21T20:40:50.304Z,11.20
2019-05-21T20:43:25.115Z,11.00
2019-05-21T20:46:02.280Z,11.00
2019-05-21T20:48:43.434Z,11.00
2019-05-21T20:51:21.695Z,11.00
2019-05-21T20:53:50.969Z,10.90
2019-05-21T20:56:20.543Z,10.80
2019-05-21T20:58:50.087Z,10.80
2019-05-21T21:01:20.469Z,10.80
2019-05-21T21:03:50.239Z,10.70
2019-05-21T21:06:34.211Z,10.70
2019-05-21T21:08:49.987Z,10.70
2019-05-21T21:11:19.669Z,10.60
2019-05-21T21:13:50.853Z,10.60
2019-05-21T21:16:20.121Z,10.60
2019-05-21T21:18:49.261Z,10.60
2019-05-21T21:21:21.066Z,10.50
2019-05-21T21:23:56.469Z,10.50
2019-05-21T21:26:33.304Z,10.50
2019-05-21T21:29:09.349Z,10.50
2019-05-21T21:31:39.747Z,10.40
2019-05-21T21:34:10.072Z,10.40
2019-05-21T21:36:44.894Z,10.40
2019-05-21T21:39:14.393Z,10.40
2019-05-21T21:41:46.414Z,10.30
2019-05-21T21:44:33.078Z,10.30
2019-05-21T21:46:51.626Z,10.20
2019-05-21T21:49:20.659Z,10.20
2019-05-21T21:51:49.639Z,10.20
2019-05-21T21:54:18.823Z,10.20
2019-05-21T21:56:47.715Z,10.10
2019-05-21T21:59:16.866Z,10.00
2019-05-21T22:01:56.978Z,10.00
2019-05-21T22:04:30.782Z,10.00
2019-05-21T22:06:59.872Z,10.00
2019-05-21T22:09:30.389Z,9.90
2019-05-21T22:12:04.078Z,9.90
2019-05-21T22:14:49.100Z,9.90
2019-05-21T22:17:05.853Z,9.90
2019-05-21T22:19:35.317Z,9.90
2019-05-21T22:22:05.825Z,9.80
2019-05-21T22:24:34.699Z,9.80
2019-05-21T22:27:03.858Z,9.80
2019-05-21T22:29:32.987Z,9.80
2019-05-21T22:32:02.178Z,9.70
2019-05-21T22:34:32.053Z,9.70
2019-05-21T22:37:09.100Z,9.70
2019-05-21T22:39:48.346Z,9.70
2019-05-21T22:42:18.345Z,9.60
2019-05-21T22:44:48.209Z,9.60
2019-05-21T22:47:36.710Z,9.60
2019-05-21T22:50:07.790Z,9.60
2019-05-21T22:52:37.144Z,9.50
2019-05-21T22:55:07.281Z,9.40
2019-05-21T22:57:37.482Z,9.40
2019-05-21T23:00:13.757Z,9.40
2019-05-21T23:02:45.061Z,9.30
2019-05-21T23:05:14.336Z,9.30
2019-05-21T23:07:43.338Z,9.30
2019-05-21T23:10:12.575Z,9.30
2019-05-21T23:12:41.574Z,9.20
2019-05-21T23:15:23.707Z,9.20
2019-05-21T23:17:49.943Z,9.20
2019-05-21T23:20:22.607Z,9.20
2019-05-21T23:22:53.359Z,9.10
2019-05-21T23:25:22.947Z,9.10
2019-05-21T23:27:52.379Z,9.00
2019-05-21T23:30:22.357Z,9.00
2019-05-21T23:32:51.709Z,9.00
2019-05-21T23:35:20.789Z,9.00
2019-05-21T23:37:53.572Z,9.00
2019-05-21T23:40:22.456Z,8.90
2019-05-21T23:42:51.501Z,8.90
2019-05-21T23:45:21.338Z,8.90
2019-05-21T23:48:02.516Z,8.80
2019-05-21T23:50:31.806Z,8.80
2019-05-21T23:53:02.384Z,8.80
2019-05-21T23:55:31.456Z,8.80
2019-05-21T23:58:01.036Z,8.80
